sensor_id;sensor_type;location;lat;lon;timestamp;temperature;humidity
2729;DHT22;1372;47.956;7.830;2024-01-16T00:00:07;-3.80;99.90
2729;DHT22;1372;47.956;7.830;2024-01-16T00:02:36;-3.80;99.90
2729;DHT22;1372;47.956;7.830;2024-01-16T00:05:06;-3.90;99.90
2729;DHT22;1372;47.956;7.830;2024-01-16T00:07:38;-3.90;99.90
2729;DHT22;1372;47.956;7.830;2024-01-16T00:10:10;-3.90;99.90
2729;DHT22;1372;47.956;7.830;2024-01-16T00:12:39;-3.90;99.90
2729;DHT22;1372;47.956;7.830;2024-01-16T00:15:08;-4.00;99.90
2729;DHT22;1372;47.956;7.830;2024-01-16T00:17:37;-4.00;99.90
2729;DHT22;1372;47.956;7.830;2024-01-16T00:20:07;-4.00;99.90
2729;DHT22;1372;47.956;7.830;2024-01-16T00:22:36;-4.00;99.90
2729;DHT22;1372;47.956;7.830;2024-01-16T00:25:06;-3.90;99.90
2729;DHT22;1372;47.956;7.830;2024-01-16T00:27:37;-4.00;99.90
2729;DHT22;1372;47.956;7.830;2024-01-16T00:30:06;-4.00;99.90
2729;DHT22;1372;47.956;7.830;2024-01-16T00:32:36;-4.00;99.90
2729;DHT22;1372;47.956;7.830;2024-01-16T00:35:05;-4.10;99.90
2729;DHT22;1372;47.956;7.830;2024-01-16T00:37:45;-4.10;99.90
2729;DHT22;1372;47.956;7.830;2024-01-16T00:40:14;-4.10;99.90
2729;DHT22;1372;47.956;7.830;2024-01-16T00:42:44;-4.20;99.90
2729;DHT22;1372;47.956;7.830;2024-01-16T00:45:13;-4.10;99.90
2729;DHT22;1372;47.956;7.830;2024-01-16T00:47:44;-4.10;99.90
2729;DHT22;1372;47.956;7.830;2024-01-16T00:50:13;-4.10;99.90
2729;DHT22;1372;47.956;7.830;2024-01-16T00:52:42;-4.00;99.90
2729;DHT22;1372;47.956;7.830;2024-01-16T00:55:11;-4.00;99.90
2729;DHT22;1372;47.956;7.830;2024-01-16T00:57:41;-4.00;99.90
2729;DHT22;1372;47.956;7.830;2024-01-16T01:00:12;-4.10;99.90
2729;DHT22;1372;47.956;7.830;2024-01-16T01:02:42;-4.20;99.90
2729;DHT22;1372;47.956;7.830;2024-01-16T01:05:11;-4.30;99.90
2729;DHT22;1372;47.956;7.830;2024-01-16T01:07:43;-4.20;99.90
2729;DHT22;1372;47.956;7.830;2024-01-16T01:10:11;-4.20;99.90
2729;DHT22;1372;47.956;7.830;2024-01-16T01:12:40;-4.20;99.90
2729;DHT22;1372;47.956;7.830;2024-01-16T01:15:10;-4.30;99.90
2729;DHT22;1372;47.956;7.830;2024-01-16T01:17:41;-4.40;99.90
2729;DHT22;1372;47.956;7.830;2024-01-16T01:20:10;-4.20;99.90
2729;DHT22;1372;47.956;7.830;2024-01-16T01:22:40;-4.10;99.90
2729;DHT22;1372;47.956;7.830;2024-01-16T01:25:08;-4.30;99.90
2729;DHT22;1372;47.956;7.830;2024-01-16T01:27:37;-4.40;99.90
2729;DHT22;1372;47.956;7.830;2024-01-16T01:30:08;-4.40;99.90
2729;DHT22;1372;47.956;7.830;2024-01-16T01:32:39;-4.40;99.90
2729;DHT22;1372;47.956;7.830;2024-01-16T01:35:08;-4.50;99.90
2729;DHT22;1372;47.956;7.830;2024-01-16T01:37:38;-4.50;99.90
2729;DHT22;1372;47.956;7.830;2024-01-16T01:40:08;-4.60;99.90
2729;DHT22;1372;47.956;7.830;2024-01-16T01:42:41;-4.50;99.90
2729;DHT22;1372;47.956;7.830;2024-01-16T01:45:10;-4.50;99.90
2729;DHT22;1372;47.956;7.830;2024-01-16T01:47:41;-4.60;99.90
2729;DHT22;1372;47.956;7.830;2024-01-16T01:50:10;-4.50;99.90
2729;DHT22;1372;47.956;7.830;2024-01-16T01:52:40;-4.40;99.90
2729;DHT22;1372;47.956;7.830;2024-01-16T01:55:11;-4.60;99.90
2729;DHT22;1372;47.956;7.830;2024-01-16T01:57:42;-4.60;99.90
2729;DHT22;1372;47.956;7.830;2024-01-16T02:00:12;-4.60;99.90
2729;DHT22;1372;47.956;7.830;2024-01-16T02:02:44;-4.60;99.90
2729;DHT22;1372;47.956;7.830;2024-01-16T02:05:13;-4.70;99.90
2729;DHT22;1372;47.956;7.830;2024-01-16T02:07:42;-4.60;99.90
2729;DHT22;1372;47.956;7.830;2024-01-16T02:10:11;-4.60;99.90
2729;DHT22;1372;47.956;7.830;2024-01-16T02:12:41;-4.70;99.90
2729;DHT22;1372;47.956;7.830;2024-01-16T02:15:10;-4.70;99.90
2729;DHT22;1372;47.956;7.830;2024-01-16T02:17:39;-4.60;99.90
2729;DHT22;1372;47.956;7.830;2024-01-16T02:20:10;-4.50;99.90
2729;DHT22;1372;47.956;7.830;2024-01-16T02:22:40;-4.60;99.90
2729;DHT22;1372;47.956;7.830;2024-01-16T02:25:14;-4.70;99.90
2729;DHT22;1372;47.956;7.830;2024-01-16T02:27:43;-4.70;99.90
2729;DHT22;1372;47.956;7.830;2024-01-16T02:30:12;-4.80;99.90
2729;DHT22;1372;47.956;7.830;2024-01-16T02:32:41;-4.80;99.90
2729;DHT22;1372;47.956;7.830;2024-01-16T02:35:10;-4.70;99.90
2729;DHT22;1372;47.956;7.830;2024-01-16T02:37:39;-4.70;99.90
2729;DHT22;1372;47.956;7.830;2024-01-16T02:40:09;-4.70;99.90
2729;DHT22;1372;47.956;7.830;2024-01-16T02:42:40;-4.80;99.90
2729;DHT22;1372;47.956;7.830;2024-01-16T02:45:09;-4.90;99.90
2729;DHT22;1372;47.956;7.830;2024-01-16T02:47:38;-4.90;99.90
2729;DHT22;1372;47.956;7.830;2024-01-16T02:50:08;-4.90;99.90
2729;DHT22;1372;47.956;7.830;2024-01-16T02:52:38;-4.90;99.90
2729;DHT22;1372;47.956;7.830;2024-01-16T02:55:07;-4.80;99.90
2729;DHT22;1372;47.956;7.830;2024-01-16T02:57:37;-4.60;99.90
2729;DHT22;1372;47.956;7.830;2024-01-16T03:00:08;-4.70;99.90
2729;DHT22;1372;47.956;7.830;2024-01-16T03:02:38;-4.80;99.90
2729;DHT22;1372;47.956;7.830;2024-01-16T03:05:07;-4.90;99.90
2729;DHT22;1372;47.956;7.830;2024-01-16T03:07:39;-4.80;99.90
2729;DHT22;1372;47.956;7.830;2024-01-16T03:10:08;-5.00;99.90
2729;DHT22;1372;47.956;7.830;2024-01-16T03:12:37;-5.00;99.90
2729;DHT22;1372;47.956;7.830;2024-01-16T03:15:08;-5.10;99.90
2729;DHT22;1372;47.956;7.830;2024-01-16T03:17:37;-4.90;99.90
2729;DHT22;1372;47.956;7.830;2024-01-16T03:20:07;-4.90;99.90
2729;DHT22;1372;47.956;7.830;2024-01-16T03:22:38;-4.90;99.90
2729;DHT22;1372;47.956;7.830;2024-01-16T03:25:09;-4.90;99.90
2729;DHT22;1372;47.956;7.830;2024-01-16T03:27:39;-5.00;99.90
2729;DHT22;1372;47.956;7.830;2024-01-16T03:30:11;-5.00;99.90
2729;DHT22;1372;47.956;7.830;2024-01-16T03:32:40;-4.90;99.90
2729;DHT22;1372;47.956;7.830;2024-01-16T03:35:11;-4.90;99.90
2729;DHT22;1372;47.956;7.830;2024-01-16T03:37:40;-4.90;99.90
2729;DHT22;1372;47.956;7.830;2024-01-16T03:40:09;-5.00;99.90
2729;DHT22;1372;47.956;7.830;2024-01-16T03:42:42;-5.10;99.90
2729;DHT22;1372;47.956;7.830;2024-01-16T03:45:12;-5.10;99.90
2729;DHT22;1372;47.956;7.830;2024-01-16T03:47:43;-5.10;99.90
2729;DHT22;1372;47.956;7.830;2024-01-16T03:50:13;-5.10;99.90
2729;DHT22;1372;47.956;7.830;2024-01-16T03:52:42;-5.10;99.90
2729;DHT22;1372;47.956;7.830;2024-01-16T03:55:13;-5.00;99.90
2729;DHT22;1372;47.956;7.830;2024-01-16T03:57:42;-5.00;99.90
2729;DHT22;1372;47.956;7.830;2024-01-16T04:00:13;-5.10;99.90
2729;DHT22;1372;47.956;7.830;2024-01-16T04:02:42;-5.10;99.90
2729;DHT22;1372;47.956;7.830;2024-01-16T04:05:11;-5.00;99.90
2729;DHT22;1372;47.956;7.830;2024-01-16T04:07:40;-4.90;99.90
2729;DHT22;1372;47.956;7.830;2024-01-16T04:10:09;-5.00;99.90
2729;DHT22;1372;47.956;7.830;2024-01-16T04:12:37;-5.00;99.90
2729;DHT22;1372;47.956;7.830;2024-01-16T04:15:07;-4.90;99.90
2729;DHT22;1372;47.956;7.830;2024-01-16T04:17:42;-5.00;99.90
2729;DHT22;1372;47.956;7.830;2024-01-16T04:20:11;-5.00;99.90
2729;DHT22;1372;47.956;7.830;2024-01-16T04:22:41;-5.00;99.90
2729;DHT22;1372;47.956;7.830;2024-01-16T04:25:09;-5.00;99.90
2729;DHT22;1372;47.956;7.830;2024-01-16T04:27:38;-4.80;99.90
2729;DHT22;1372;47.956;7.830;2024-01-16T04:30:08;-4.80;99.90
2729;DHT22;1372;47.956;7.830;2024-01-16T04:32:37;-4.90;99.90
2729;DHT22;1372;47.956;7.830;2024-01-16T04:35:08;-4.80;99.90
2729;DHT22;1372;47.956;7.830;2024-01-16T04:37:37;-4.80;99.90
2729;DHT22;1372;47.956;7.830;2024-01-16T04:40:07;-4.90;99.90
2729;DHT22;1372;47.956;7.830;2024-01-16T04:42:36;-5.00;99.90
2729;DHT22;1372;47.956;7.830;2024-01-16T04:45:06;-5.10;99.90
2729;DHT22;1372;47.956;7.830;2024-01-16T04:47:35;-5.10;99.90
2729;DHT22;1372;47.956;7.830;2024-01-16T04:50:04;-5.10;99.90
2729;DHT22;1372;47.956;7.830;2024-01-16T04:52:36;-5.00;99.90
2729;DHT22;1372;47.956;7.830;2024-01-16T04:55:06;-5.00;99.90
2729;DHT22;1372;47.956;7.830;2024-01-16T04:57:35;-5.10;99.90
2729;DHT22;1372;47.956;7.830;2024-01-16T05:00:07;-5.00;99.90
2729;DHT22;1372;47.956;7.830;2024-01-16T05:02:36;-5.00;99.90
2729;DHT22;1372;47.956;7.830;2024-01-16T05:05:06;-5.00;99.90
2729;DHT22;1372;47.956;7.830;2024-01-16T05:07:36;-5.00;99.90
2729;DHT22;1372;47.956;7.830;2024-01-16T05:10:06;-5.00;99.90
2729;DHT22;1372;47.956;7.830;2024-01-16T05:12:38;-4.90;99.90
2729;DHT22;1372;47.956;7.830;2024-01-16T05:15:07;-5.00;99.90
2729;DHT22;1372;47.956;7.830;2024-01-16T05:17:40;-5.00;99.90
2729;DHT22;1372;47.956;7.830;2024-01-16T05:20:09;-4.90;99.90
2729;DHT22;1372;47.956;7.830;2024-01-16T05:22:40;-5.00;99.90
2729;DHT22;1372;47.956;7.830;2024-01-16T05:25:09;-5.00;99.90
2729;DHT22;1372;47.956;7.830;2024-01-16T05:27:40;-4.90;99.90
2729;DHT22;1372;47.956;7.830;2024-01-16T05:30:09;-4.90;99.90
2729;DHT22;1372;47.956;7.830;2024-01-16T05:32:39;-4.90;99.90
2729;DHT22;1372;47.956;7.830;2024-01-16T05:35:09;-5.00;99.90
2729;DHT22;1372;47.956;7.830;2024-01-16T05:37:39;-5.00;99.90
2729;DHT22;1372;47.956;7.830;2024-01-16T05:40:11;-5.00;99.90
2729;DHT22;1372;47.956;7.830;2024-01-16T05:42:42;-5.00;99.90
2729;DHT22;1372;47.956;7.830;2024-01-16T05:45:11;-5.10;99.90
2729;DHT22;1372;47.956;7.830;2024-01-16T05:47:40;-5.10;99.90
2729;DHT22;1372;47.956;7.830;2024-01-16T05:50:09;-5.10;99.90
2729;DHT22;1372;47.956;7.830;2024-01-16T05:52:42;-5.10;99.90
2729;DHT22;1372;47.956;7.830;2024-01-16T05:55:13;-5.10;99.90
2729;DHT22;1372;47.956;7.830;2024-01-16T05:57:44;-5.20;99.90
2729;DHT22;1372;47.956;7.830;2024-01-16T06:00:14;-5.20;99.90
2729;DHT22;1372;47.956;7.830;2024-01-16T06:02:45;-5.30;99.90
2729;DHT22;1372;47.956;7.830;2024-01-16T06:05:13;-5.30;99.90
2729;DHT22;1372;47.956;7.830;2024-01-16T06:07:44;-5.30;99.90
2729;DHT22;1372;47.956;7.830;2024-01-16T06:10:13;-5.40;99.90
2729;DHT22;1372;47.956;7.830;2024-01-16T06:12:42;-5.40;99.90
2729;DHT22;1372;47.956;7.830;2024-01-16T06:15:11;-5.30;99.90
2729;DHT22;1372;47.956;7.830;2024-01-16T06:17:42;-5.20;99.90
2729;DHT22;1372;47.956;7.830;2024-01-16T06:20:12;-5.10;99.90
2729;DHT22;1372;47.956;7.830;2024-01-16T06:22:40;-5.20;99.90
2729;DHT22;1372;47.956;7.830;2024-01-16T06:25:10;-5.30;99.90
2729;DHT22;1372;47.956;7.830;2024-01-16T06:27:40;-5.20;99.90
2729;DHT22;1372;47.956;7.830;2024-01-16T06:30:12;-5.30;99.90
2729;DHT22;1372;47.956;7.830;2024-01-16T06:32:41;-5.30;99.90
2729;DHT22;1372;47.956;7.830;2024-01-16T06:35:11;-5.40;99.90
2729;DHT22;1372;47.956;7.830;2024-01-16T06:37:41;-5.50;99.90
2729;DHT22;1372;47.956;7.830;2024-01-16T06:40:11;-5.50;99.90
2729;DHT22;1372;47.956;7.830;2024-01-16T06:42:40;-5.50;99.90
2729;DHT22;1372;47.956;7.830;2024-01-16T06:45:10;-5.40;99.90
2729;DHT22;1372;47.956;7.830;2024-01-16T06:47:40;-5.40;99.90
2729;DHT22;1372;47.956;7.830;2024-01-16T06:50:10;-5.30;99.90
2729;DHT22;1372;47.956;7.830;2024-01-16T06:52:38;-5.40;99.90
2729;DHT22;1372;47.956;7.830;2024-01-16T06:55:07;-5.40;99.90
2729;DHT22;1372;47.956;7.830;2024-01-16T06:57:37;-5.50;99.90
2729;DHT22;1372;47.956;7.830;2024-01-16T07:00:07;-5.50;99.90
2729;DHT22;1372;47.956;7.830;2024-01-16T07:02:36;-5.60;99.90
2729;DHT22;1372;47.956;7.830;2024-01-16T07:05:05;-5.50;99.90
2729;DHT22;1372;47.956;7.830;2024-01-16T07:07:36;-5.40;99.90
2729;DHT22;1372;47.956;7.830;2024-01-16T07:10:06;-5.50;99.90
2729;DHT22;1372;47.956;7.830;2024-01-16T07:12:41;-5.60;99.90
2729;DHT22;1372;47.956;7.830;2024-01-16T07:15:10;-5.70;99.90
2729;DHT22;1372;47.956;7.830;2024-01-16T07:17:40;-5.70;99.90
2729;DHT22;1372;47.956;7.830;2024-01-16T07:20:10;-5.50;99.90
2729;DHT22;1372;47.956;7.830;2024-01-16T07:22:39;-5.40;99.90
2729;DHT22;1372;47.956;7.830;2024-01-16T07:25:09;-5.50;99.90
2729;DHT22;1372;47.956;7.830;2024-01-16T07:27:38;-5.50;99.90
2729;DHT22;1372;47.956;7.830;2024-01-16T07:30:09;-5.60;99.90
2729;DHT22;1372;47.956;7.830;2024-01-16T07:32:38;-5.70;99.90
2729;DHT22;1372;47.956;7.830;2024-01-16T07:35:09;-5.60;99.90
2729;DHT22;1372;47.956;7.830;2024-01-16T07:37:38;-5.60;99.90
2729;DHT22;1372;47.956;7.830;2024-01-16T07:40:07;-5.60;99.90
2729;DHT22;1372;47.956;7.830;2024-01-16T07:42:37;-5.50;99.90
2729;DHT22;1372;47.956;7.830;2024-01-16T07:45:08;-5.40;99.90
2729;DHT22;1372;47.956;7.830;2024-01-16T07:47:37;-5.30;99.90
2729;DHT22;1372;47.956;7.830;2024-01-16T07:50:09;-5.30;99.90
2729;DHT22;1372;47.956;7.830;2024-01-16T07:52:38;-5.20;99.90
2729;DHT22;1372;47.956;7.830;2024-01-16T07:55:10;-5.20;99.90
2729;DHT22;1372;47.956;7.830;2024-01-16T07:57:41;-5.30;99.90
2729;DHT22;1372;47.956;7.830;2024-01-16T08:00:12;-5.30;99.90
2729;DHT22;1372;47.956;7.830;2024-01-16T08:02:43;-5.30;99.90
2729;DHT22;1372;47.956;7.830;2024-01-16T08:05:12;-5.40;99.90
2729;DHT22;1372;47.956;7.830;2024-01-16T08:07:42;-5.40;99.90
2729;DHT22;1372;47.956;7.830;2024-01-16T08:10:11;-5.40;99.90
2729;DHT22;1372;47.956;7.830;2024-01-16T08:12:42;-5.50;99.90
2729;DHT22;1372;47.956;7.830;2024-01-16T08:15:12;-5.40;99.90
2729;DHT22;1372;47.956;7.830;2024-01-16T08:17:42;-5.50;99.90
2729;DHT22;1372;47.956;7.830;2024-01-16T08:20:14;-5.50;99.90
2729;DHT22;1372;47.956;7.830;2024-01-16T08:22:43;-5.40;99.90
2729;DHT22;1372;47.956;7.830;2024-01-16T08:25:12;-5.30;99.90
2729;DHT22;1372;47.956;7.830;2024-01-16T08:27:40;-5.20;99.90
2729;DHT22;1372;47.956;7.830;2024-01-16T08:30:12;-5.10;99.90
2729;DHT22;1372;47.956;7.830;2024-01-16T08:32:41;-5.20;99.90
2729;DHT22;1372;47.956;7.830;2024-01-16T08:35:10;-5.30;99.90
2729;DHT22;1372;47.956;7.830;2024-01-16T08:37:39;-5.20;99.90
2729;DHT22;1372;47.956;7.830;2024-01-16T08:40:08;-5.10;99.90
2729;DHT22;1372;47.956;7.830;2024-01-16T08:42:38;-5.00;99.90
2729;DHT22;1372;47.956;7.830;2024-01-16T08:45:08;-4.90;99.90
2729;DHT22;1372;47.956;7.830;2024-01-16T08:47:38;-4.90;99.90
2729;DHT22;1372;47.956;7.830;2024-01-16T08:50:14;-4.80;99.90
2729;DHT22;1372;47.956;7.830;2024-01-16T08:52:43;-4.70;99.90
2729;DHT22;1372;47.956;7.830;2024-01-16T08:55:14;-4.60;99.90
2729;DHT22;1372;47.956;7.830;2024-01-16T08:57:43;-4.50;99.90
2729;DHT22;1372;47.956;7.830;2024-01-16T09:00:15;-4.50;99.90
2729;DHT22;1372;47.956;7.830;2024-01-16T09:02:48;-4.50;99.90
2729;DHT22;1372;47.956;7.830;2024-01-16T09:05:16;-4.30;99.90
2729;DHT22;1372;47.956;7.830;2024-01-16T09:07:45;-4.20;99.90
2729;DHT22;1372;47.956;7.830;2024-01-16T09:10:14;-4.20;99.90
2729;DHT22;1372;47.956;7.830;2024-01-16T09:12:43;-4.10;99.90
2729;DHT22;1372;47.956;7.830;2024-01-16T09:15:12;-4.00;99.90
2729;DHT22;1372;47.956;7.830;2024-01-16T09:17:40;-3.90;99.90
2729;DHT22;1372;47.956;7.830;2024-01-16T09:20:11;-3.80;99.90
2729;DHT22;1372;47.956;7.830;2024-01-16T09:22:40;-3.70;99.90
2729;DHT22;1372;47.956;7.830;2024-01-16T09:25:09;-3.70;99.90
2729;DHT22;1372;47.956;7.830;2024-01-16T09:27:37;-3.50;99.90
2729;DHT22;1372;47.956;7.830;2024-01-16T09:30:08;-3.30;99.90
2729;DHT22;1372;47.956;7.830;2024-01-16T09:32:37;-3.20;99.90
2729;DHT22;1372;47.956;7.830;2024-01-16T09:35:06;-3.10;99.90
2729;DHT22;1372;47.956;7.830;2024-01-16T09:37:37;-3.10;99.90
2729;DHT22;1372;47.956;7.830;2024-01-16T09:40:08;-3.00;99.90
2729;DHT22;1372;47.956;7.830;2024-01-16T09:42:37;-2.90;99.90
2729;DHT22;1372;47.956;7.830;2024-01-16T09:45:07;-2.80;99.90
2729;DHT22;1372;47.956;7.830;2024-01-16T09:47:37;-2.80;99.90
2729;DHT22;1372;47.956;7.830;2024-01-16T09:50:07;-2.70;99.90
2729;DHT22;1372;47.956;7.830;2024-01-16T09:52:37;-2.60;99.90
2729;DHT22;1372;47.956;7.830;2024-01-16T09:55:07;-2.40;99.90
2729;DHT22;1372;47.956;7.830;2024-01-16T09:57:39;-2.30;99.90
2729;DHT22;1372;47.956;7.830;2024-01-16T10:00:10;-2.20;99.90
2729;DHT22;1372;47.956;7.830;2024-01-16T10:02:40;-2.10;99.90
2729;DHT22;1372;47.956;7.830;2024-01-16T10:05:10;-2.00;99.90
2729;DHT22;1372;47.956;7.830;2024-01-16T10:07:43;-1.90;99.90
2729;DHT22;1372;47.956;7.830;2024-01-16T10:10:12;-1.90;99.90
2729;DHT22;1372;47.956;7.830;2024-01-16T10:12:46;-1.80;99.90
2729;DHT22;1372;47.956;7.830;2024-01-16T10:15:17;-1.70;99.90
2729;DHT22;1372;47.956;7.830;2024-01-16T10:17:48;-1.60;99.90
2729;DHT22;1372;47.956;7.830;2024-01-16T10:20:31;-1.50;99.90
2729;DHT22;1372;47.956;7.830;2024-01-16T10:23:02;-1.40;99.90
2729;DHT22;1372;47.956;7.830;2024-01-16T10:25:31;-1.30;99.90
2729;DHT22;1372;47.956;7.830;2024-01-16T10:28:05;-1.30;99.90
2729;DHT22;1372;47.956;7.830;2024-01-16T10:30:41;-1.20;99.90
2729;DHT22;1372;47.956;7.830;2024-01-16T10:33:14;-1.20;99.90
2729;DHT22;1372;47.956;7.830;2024-01-16T10:35:46;-1.30;99.90
2729;DHT22;1372;47.956;7.830;2024-01-16T10:38:21;-1.20;99.90
2729;DHT22;1372;47.956;7.830;2024-01-16T10:41:05;-1.20;99.90
2729;DHT22;1372;47.956;7.830;2024-01-16T10:43:34;-1.20;99.90
2729;DHT22;1372;47.956;7.830;2024-01-16T10:46:10;-1.20;99.90
2729;DHT22;1372;47.956;7.830;2024-01-16T10:48:41;-1.20;99.90
2729;DHT22;1372;47.956;7.830;2024-01-16T10:51:14;-1.20;99.90
2729;DHT22;1372;47.956;7.830;2024-01-16T10:53:45;-1.10;99.90
2729;DHT22;1372;47.956;7.830;2024-01-16T10:56:17;-1.10;99.90
2729;DHT22;1372;47.956;7.830;2024-01-16T10:58:51;-1.10;99.90
2729;DHT22;1372;47.956;7.830;2024-01-16T11:01:26;-1.00;99.90
2729;DHT22;1372;47.956;7.830;2024-01-16T11:03:56;-1.00;99.90
2729;DHT22;1372;47.956;7.830;2024-01-16T11:06:29;-0.90;99.90
2729;DHT22;1372;47.956;7.830;2024-01-16T11:09:01;-0.80;99.90
2729;DHT22;1372;47.956;7.830;2024-01-16T11:11:33;-0.70;99.90
2729;DHT22;1372;47.956;7.830;2024-01-16T11:14:05;-0.60;99.90
2729;DHT22;1372;47.956;7.830;2024-01-16T11:16:35;-0.60;99.90
2729;DHT22;1372;47.956;7.830;2024-01-16T11:19:04;-0.50;99.90
2729;DHT22;1372;47.956;7.830;2024-01-16T11:21:44;-0.40;99.90
2729;DHT22;1372;47.956;7.830;2024-01-16T11:24:16;-0.30;99.90
2729;DHT22;1372;47.956;7.830;2024-01-16T11:26:45;-0.30;99.90
2729;DHT22;1372;47.956;7.830;2024-01-16T11:29:35;-0.10;99.90
2729;DHT22;1372;47.956;7.830;2024-01-16T11:32:05;-0.30;99.90
2729;DHT22;1372;47.956;7.830;2024-01-16T11:35:02;-0.30;99.90
2729;DHT22;1372;47.956;7.830;2024-01-16T11:37:33;-0.40;99.90
2729;DHT22;1372;47.956;7.830;2024-01-16T11:40:26;-0.20;99.90
2729;DHT22;1372;47.956;7.830;2024-01-16T11:42:55;-0.20;99.90
2729;DHT22;1372;47.956;7.830;2024-01-16T11:45:50;-0.10;99.90
2729;DHT22;1372;47.956;7.830;2024-01-16T11:48:20;-0.20;99.90
2729;DHT22;1372;47.956;7.830;2024-01-16T11:50:52;-0.20;99.90
2729;DHT22;1372;47.956;7.830;2024-01-16T11:53:35;-0.30;99.90
2729;DHT22;1372;47.956;7.830;2024-01-16T11:56:39;-0.30;99.90
2729;DHT22;1372;47.956;7.830;2024-01-16T12:02:42;-0.20;99.90
2729;DHT22;1372;47.956;7.830;2024-01-16T12:05:21;-0.30;99.90
2729;DHT22;1372;47.956;7.830;2024-01-16T12:07:52;-0.30;99.90
2729;DHT22;1372;47.956;7.830;2024-01-16T12:10:23;-0.10;99.90
2729;DHT22;1372;47.956;7.830;2024-01-16T12:12:59;0.10;99.90
2729;DHT22;1372;47.956;7.830;2024-01-16T12:15:31;0.30;99.90
2729;DHT22;1372;47.956;7.830;2024-01-16T12:18:01;0.40;99.90
2729;DHT22;1372;47.956;7.830;2024-01-16T12:20:32;0.30;99.90
2729;DHT22;1372;47.956;7.830;2024-01-16T12:23:07;0.20;99.90
2729;DHT22;1372;47.956;7.830;2024-01-16T12:25:37;0.40;99.90
2729;DHT22;1372;47.956;7.830;2024-01-16T12:28:26;0.40;99.90
2729;DHT22;1372;47.956;7.830;2024-01-16T12:31:00;0.50;99.90
2729;DHT22;1372;47.956;7.830;2024-01-16T12:33:30;0.60;99.90
2729;DHT22;1372;47.956;7.830;2024-01-16T12:36:02;0.60;99.90
2729;DHT22;1372;47.956;7.830;2024-01-16T12:38:33;0.60;99.90
2729;DHT22;1372;47.956;7.830;2024-01-16T12:41:06;0.60;99.90
2729;DHT22;1372;47.956;7.830;2024-01-16T12:43:41;0.70;99.90
2729;DHT22;1372;47.956;7.830;2024-01-16T12:46:11;0.80;99.90
2729;DHT22;1372;47.956;7.830;2024-01-16T12:48:40;0.90;99.90
2729;DHT22;1372;47.956;7.830;2024-01-16T12:51:22;0.90;99.90
2729;DHT22;1372;47.956;7.830;2024-01-16T12:53:51;1.00;99.90
2729;DHT22;1372;47.956;7.830;2024-01-16T12:56:22;1.00;99.90
2729;DHT22;1372;47.956;7.830;2024-01-16T12:59:08;0.90;99.90
2729;DHT22;1372;47.956;7.830;2024-01-16T13:01:40;1.00;99.90
2729;DHT22;1372;47.956;7.830;2024-01-16T13:04:15;1.00;99.90
2729;DHT22;1372;47.956;7.830;2024-01-16T13:06:46;0.90;99.90
2729;DHT22;1372;47.956;7.830;2024-01-16T13:09:16;1.00;99.90
2729;DHT22;1372;47.956;7.830;2024-01-16T13:11:49;1.00;99.90
2729;DHT22;1372;47.956;7.830;2024-01-16T13:14:21;1.00;99.90
2729;DHT22;1372;47.956;7.830;2024-01-16T13:16:53;1.10;99.90
2729;DHT22;1372;47.956;7.830;2024-01-16T13:19:24;1.20;99.90
2729;DHT22;1372;47.956;7.830;2024-01-16T13:21:53;1.10;99.90
2729;DHT22;1372;47.956;7.830;2024-01-16T13:24:22;1.20;99.90
2729;DHT22;1372;47.956;7.830;2024-01-16T13:26:51;1.30;99.90
2729;DHT22;1372;47.956;7.830;2024-01-16T13:29:25;1.30;99.90
2729;DHT22;1372;47.956;7.830;2024-01-16T13:31:54;1.20;99.90
2729;DHT22;1372;47.956;7.830;2024-01-16T13:34:23;1.30;99.90
2729;DHT22;1372;47.956;7.830;2024-01-16T13:36:53;1.30;99.90
2729;DHT22;1372;47.956;7.830;2024-01-16T13:39:27;1.40;99.90
2729;DHT22;1372;47.956;7.830;2024-01-16T13:41:55;1.50;99.90
2729;DHT22;1372;47.956;7.830;2024-01-16T13:44:26;1.50;99.90
2729;DHT22;1372;47.956;7.830;2024-01-16T13:46:55;1.50;99.90
2729;DHT22;1372;47.956;7.830;2024-01-16T13:49:27;1.60;99.90
2729;DHT22;1372;47.956;7.830;2024-01-16T13:51:56;1.60;99.90
2729;DHT22;1372;47.956;7.830;2024-01-16T13:54:25;1.60;99.90
2729;DHT22;1372;47.956;7.830;2024-01-16T13:56:54;1.70;99.90
2729;DHT22;1372;47.956;7.830;2024-01-16T13:59:29;1.70;99.90
2729;DHT22;1372;47.956;7.830;2024-01-16T14:01:58;1.80;99.90
2729;DHT22;1372;47.956;7.830;2024-01-16T14:04:28;1.90;99.90
2729;DHT22;1372;47.956;7.830;2024-01-16T14:06:57;1.90;99.90
2729;DHT22;1372;47.956;7.830;2024-01-16T14:09:36;1.90;99.90
2729;DHT22;1372;47.956;7.830;2024-01-16T14:12:08;1.90;99.90
2729;DHT22;1372;47.956;7.830;2024-01-16T14:14:40;1.90;99.90
2729;DHT22;1372;47.956;7.830;2024-01-16T14:17:10;2.00;99.90
2729;DHT22;1372;47.956;7.830;2024-01-16T14:19:42;2.00;99.90
2729;DHT22;1372;47.956;7.830;2024-01-16T14:22:11;1.90;99.90
2729;DHT22;1372;47.956;7.830;2024-01-16T14:24:39;1.90;99.90
2729;DHT22;1372;47.956;7.830;2024-01-16T14:27:08;1.80;99.90
2729;DHT22;1372;47.956;7.830;2024-01-16T14:29:39;1.70;99.90
2729;DHT22;1372;47.956;7.830;2024-01-16T14:32:08;1.70;99.90
2729;DHT22;1372;47.956;7.830;2024-01-16T14:34:38;1.80;99.90
2729;DHT22;1372;47.956;7.830;2024-01-16T14:37:07;1.80;99.90
2729;DHT22;1372;47.956;7.830;2024-01-16T14:39:35;1.90;99.90
2729;DHT22;1372;47.956;7.830;2024-01-16T14:42:04;1.90;99.90
2729;DHT22;1372;47.956;7.830;2024-01-16T14:44:34;1.80;99.90
2729;DHT22;1372;47.956;7.830;2024-01-16T14:47:06;1.70;99.90
2729;DHT22;1372;47.956;7.830;2024-01-16T14:49:35;1.50;99.90
2729;DHT22;1372;47.956;7.830;2024-01-16T14:52:04;1.40;99.90
2729;DHT22;1372;47.956;7.830;2024-01-16T14:54:35;1.20;99.90
2729;DHT22;1372;47.956;7.830;2024-01-16T14:57:04;1.10;99.90
2729;DHT22;1372;47.956;7.830;2024-01-16T14:59:34;1.00;99.90
2729;DHT22;1372;47.956;7.830;2024-01-16T15:02:05;1.00;99.90
2729;DHT22;1372;47.956;7.830;2024-01-16T15:04:40;0.80;99.90
2729;DHT22;1372;47.956;7.830;2024-01-16T15:07:13;0.70;99.90
2729;DHT22;1372;47.956;7.830;2024-01-16T15:09:44;0.40;99.90
2729;DHT22;1372;47.956;7.830;2024-01-16T15:12:13;0.20;99.90
2729;DHT22;1372;47.956;7.830;2024-01-16T15:14:42;0.30;99.90
2729;DHT22;1372;47.956;7.830;2024-01-16T15:17:12;0.20;99.90
2729;DHT22;1372;47.956;7.830;2024-01-16T15:19:45;0.10;99.90
2729;DHT22;1372;47.956;7.830;2024-01-16T15:22:14;-0.10;99.90
2729;DHT22;1372;47.956;7.830;2024-01-16T15:24:43;-0.20;99.90
2729;DHT22;1372;47.956;7.830;2024-01-16T15:27:13;-0.30;99.90
2729;DHT22;1372;47.956;7.830;2024-01-16T15:29:42;-0.40;99.90
2729;DHT22;1372;47.956;7.830;2024-01-16T15:32:12;-0.50;99.90
2729;DHT22;1372;47.956;7.830;2024-01-16T15:34:41;-0.60;99.90
2729;DHT22;1372;47.956;7.830;2024-01-16T15:37:10;-0.70;99.90
2729;DHT22;1372;47.956;7.830;2024-01-16T15:39:39;-0.80;99.90
2729;DHT22;1372;47.956;7.830;2024-01-16T15:42:08;-0.80;99.90
2729;DHT22;1372;47.956;7.830;2024-01-16T15:44:37;-1.00;99.90
2729;DHT22;1372;47.956;7.830;2024-01-16T15:47:05;-1.10;99.90
2729;DHT22;1372;47.956;7.830;2024-01-16T15:49:36;-1.10;99.90
2729;DHT22;1372;47.956;7.830;2024-01-16T15:52:05;-1.20;99.90
2729;DHT22;1372;47.956;7.830;2024-01-16T15:54:34;-1.50;99.90
2729;DHT22;1372;47.956;7.830;2024-01-16T15:57:03;-1.50;99.90
2729;DHT22;1372;47.956;7.830;2024-01-16T15:59:32;-1.50;99.90
2729;DHT22;1372;47.956;7.830;2024-01-16T16:02:01;-1.60;99.90
2729;DHT22;1372;47.956;7.830;2024-01-16T16:04:31;-1.60;99.90
2729;DHT22;1372;47.956;7.830;2024-01-16T16:07:01;-1.80;99.90
2729;DHT22;1372;47.956;7.830;2024-01-16T16:09:31;-1.80;99.90
2729;DHT22;1372;47.956;7.830;2024-01-16T16:12:02;-2.00;99.90
2729;DHT22;1372;47.956;7.830;2024-01-16T16:14:32;-2.00;99.90
2729;DHT22;1372;47.956;7.830;2024-01-16T16:17:04;-2.10;99.90
2729;DHT22;1372;47.956;7.830;2024-01-16T16:19:35;-2.00;99.90
2729;DHT22;1372;47.956;7.830;2024-01-16T16:22:08;-2.00;99.90
2729;DHT22;1372;47.956;7.830;2024-01-16T16:24:36;-2.10;99.90
2729;DHT22;1372;47.956;7.830;2024-01-16T16:27:21;-2.20;99.90
2729;DHT22;1372;47.956;7.830;2024-01-16T16:29:52;-2.30;99.90